sensor_id;sensor_type;location;lat;lon;timestamp;P1;durP1;ratioP1;P2;durP2;ratioP2
9884;SDS011;4981;50.966;4.842;2023-04-15T10:01:58;5.93;;;3.20;;
9884;SDS011;4981;50.966;4.842;2023-04-15T10:04:26;3.07;;;2.03;;
9884;SDS011;4981;50.966;4.842;2023-04-15T10:06:53;5.57;;;2.87;;
9884;SDS011;4981;50.966;4.842;2023-04-15T10:09:21;2.23;;;1.80;;
9884;SDS011;4981;50.966;4.842;2023-04-15T10:11:48;4.13;;;2.13;;
9884;SDS011;4981;50.966;4.842;2023-04-15T10:14:16;6.57;;;3.80;;
9884;SDS011;4981;50.966;4.842;2023-04-15T10:16:44;3.80;;;2.20;;
9884;SDS011;4981;50.966;4.842;2023-04-15T10:19:15;3.33;;;2.53;;
9884;SDS011;4981;50.966;4.842;2023-04-15T10:21:45;5.57;;;4.07;;
9884;SDS011;4981;50.966;4.842;2023-04-15T10:24:12;5.13;;;2.43;;
9884;SDS011;4981;50.966;4.842;2023-04-15T10:26:40;4.83;;;2.97;;
9884;SDS011;4981;50.966;4.842;2023-04-15T10:29:08;4.10;;;2.47;;
9884;SDS011;4981;50.966;4.842;2023-04-15T10:31:36;3.87;;;2.30;;
9884;SDS011;4981;50.966;4.842;2023-04-15T10:34:04;3.57;;;2.23;;
9884;SDS011;4981;50.966;4.842;2023-04-15T10:36:33;6.00;;;3.60;;
9884;SDS011;4981;50.966;4.842;2023-04-15T10:39:01;4.60;;;3.70;;
9884;SDS011;4981;50.966;4.842;2023-04-15T10:41:28;4.13;;;3.17;;
9884;SDS011;4981;50.966;4.842;2023-04-15T10:43:59;6.73;;;3.40;;
9884;SDS011;4981;50.966;4.842;2023-04-15T10:46:33;4.50;;;2.10;;
9884;SDS011;4981;50.966;4.842;2023-04-15T10:49:05;5.13;;;2.77;;
9884;SDS011;4981;50.966;4.842;2023-04-15T10:51:37;4.13;;;2.20;;
9884;SDS011;4981;50.966;4.842;2023-04-15T10:54:08;2.70;;;1.73;;
9884;SDS011;4981;50.966;4.842;2023-04-15T10:56:35;6.73;;;2.93;;
9884;SDS011;4981;50.966;4.842;2023-04-15T10:59:04;5.57;;;3.90;;
9884;SDS011;4981;50.966;4.842;2023-04-15T11:01:50;4.70;;;3.37;;
9884;SDS011;4981;50.966;4.842;2023-04-15T11:07:05;3.03;;;2.70;;
9884;SDS011;4981;50.966;4.842;2023-04-15T11:09:33;3.03;;;1.50;;
9884;SDS011;4981;50.966;4.842;2023-04-15T11:12:04;2.67;;;1.20;;
9884;SDS011;4981;50.966;4.842;2023-04-15T11:14:32;3.53;;;2.60;;
9884;SDS011;4981;50.966;4.842;2023-04-15T11:17:00;4.17;;;2.60;;
9884;SDS011;4981;50.966;4.842;2023-04-15T11:19:34;4.83;;;2.83;;
9884;SDS011;4981;50.966;4.842;2023-04-15T11:22:07;4.10;;;2.67;;
9884;SDS011;4981;50.966;4.842;2023-04-15T11:24:34;4.27;;;2.73;;
9884;SDS011;4981;50.966;4.842;2023-04-15T11:30:16;3.93;;;2.83;;
9884;SDS011;4981;50.966;4.842;2023-04-15T11:32:44;3.40;;;2.67;;
9884;SDS011;4981;50.966;4.842;2023-04-15T11:35:11;3.37;;;1.83;;
9884;SDS011;4981;50.966;4.842;2023-04-15T11:37:40;2.70;;;2.23;;
9884;SDS011;4981;50.966;4.842;2023-04-15T11:40:08;2.87;;;1.60;;
9884;SDS011;4981;50.966;4.842;2023-04-15T11:42:35;3.47;;;1.70;;
9884;SDS011;4981;50.966;4.842;2023-04-15T11:45:07;3.17;;;1.37;;
9884;SDS011;4981;50.966;4.842;2023-04-15T11:47:38;1.93;;;1.17;;
9884;SDS011;4981;50.966;4.842;2023-04-15T11:50:15;2.43;;;1.40;;
9884;SDS011;4981;50.966;4.842;2023-04-15T11:52:54;1.40;;;1.10;;
9884;SDS011;4981;50.966;4.842;2023-04-15T11:55:22;3.30;;;1.57;;
9884;SDS011;4981;50.966;4.842;2023-04-15T11:57:49;3.47;;;1.20;;
9884;SDS011;4981;50.966;4.842;2023-04-15T12:00:18;1.80;;;1.23;;
9884;SDS011;4981;50.966;4.842;2023-04-15T12:02:46;2.03;;;1.10;;
9884;SDS011;4981;50.966;4.842;2023-04-15T12:05:13;1.50;;;1.00;;
9884;SDS011;4981;50.966;4.842;2023-04-15T12:07:57;1.73;;;1.33;;
9884;SDS011;4981;50.966;4.842;2023-04-15T12:10:25;1.20;;;0.97;;
9884;SDS011;4981;50.966;4.842;2023-04-15T12:12:53;1.63;;;1.00;;
9884;SDS011;4981;50.966;4.842;2023-04-15T12:15:21;2.63;;;1.30;;
9884;SDS011;4981;50.966;4.842;2023-04-15T12:17:52;0.70;;;0.70;;
9884;SDS011;4981;50.966;4.842;2023-04-15T12:20:22;2.13;;;1.30;;
9884;SDS011;4981;50.966;4.842;2023-04-15T12:22:51;2.03;;;1.20;;
9884;SDS011;4981;50.966;4.842;2023-04-15T12:25:20;1.33;;;1.03;;
9884;SDS011;4981;50.966;4.842;2023-04-15T12:27:58;2.33;;;1.37;;
9884;SDS011;4981;50.966;4.842;2023-04-15T12:30:26;1.40;;;1.10;;
9884;SDS011;4981;50.966;4.842;2023-04-15T12:32:53;0.73;;;0.50;;
9884;SDS011;4981;50.966;4.842;2023-04-15T12:35:20;2.30;;;1.00;;
9884;SDS011;4981;50.966;4.842;2023-04-15T12:37:48;1.93;;;1.17;;
9884;SDS011;4981;50.966;4.842;2023-04-15T12:40:16;1.90;;;0.87;;
9884;SDS011;4981;50.966;4.842;2023-04-15T12:42:45;2.87;;;1.03;;
9884;SDS011;4981;50.966;4.842;2023-04-15T12:45:13;1.57;;;0.70;;
9884;SDS011;4981;50.966;4.842;2023-04-15T12:47:40;1.60;;;0.97;;
9884;SDS011;4981;50.966;4.842;2023-04-15T12:50:08;2.43;;;1.13;;
9884;SDS011;4981;50.966;4.842;2023-04-15T12:52:35;1.63;;;1.13;;
9884;SDS011;4981;50.966;4.842;2023-04-15T12:55:03;2.00;;;0.77;;
9884;SDS011;4981;50.966;4.842;2023-04-15T12:57:30;1.53;;;0.73;;
9884;SDS011;4981;50.966;4.842;2023-04-15T12:59:59;2.23;;;1.30;;
9884;SDS011;4981;50.966;4.842;2023-04-15T13:02:26;1.87;;;1.10;;
9884;SDS011;4981;50.966;4.842;2023-04-15T13:04:54;1.87;;;1.40;;
9884;SDS011;4981;50.966;4.842;2023-04-15T13:07:21;5.03;;;1.70;;
9884;SDS011;4981;50.966;4.842;2023-04-15T13:09:48;3.47;;;1.90;;
9884;SDS011;4981;50.966;4.842;2023-04-15T13:12:16;2.30;;;1.50;;
9884;SDS011;4981;50.966;4.842;2023-04-15T13:14:43;3.03;;;1.00;;
9884;SDS011;4981;50.966;4.842;2023-04-15T13:17:12;2.70;;;1.23;;
9884;SDS011;4981;50.966;4.842;2023-04-15T13:19:39;1.80;;;0.97;;
9884;SDS011;4981;50.966;4.842;2023-04-15T13:22:07;1.93;;;0.80;;
9884;SDS011;4981;50.966;4.842;2023-04-15T13:24:34;2.67;;;1.40;;
9884;SDS011;4981;50.966;4.842;2023-04-15T13:27:03;1.35;;;0.80;;
9884;SDS011;4981;50.966;4.842;2023-04-15T13:29:31;2.13;;;1.02;;
9884;SDS011;4981;50.966;4.842;2023-04-15T13:31:58;2.03;;;0.90;;
9884;SDS011;4981;50.966;4.842;2023-04-15T13:34:27;1.88;;;0.80;;
9884;SDS011;4981;50.966;4.842;2023-04-15T13:36:54;2.30;;;0.98;;
9884;SDS011;4981;50.966;4.842;2023-04-15T13:39:22;1.40;;;0.87;;
9884;SDS011;4981;50.966;4.842;2023-04-15T13:41:51;1.35;;;0.80;;
9884;SDS011;4981;50.966;4.842;2023-04-15T13:44:19;2.17;;;1.10;;
9884;SDS011;4981;50.966;4.842;2023-04-15T13:46:46;3.30;;;1.15;;
9884;SDS011;4981;50.966;4.842;2023-04-15T13:49:13;1.77;;;0.68;;
9884;SDS011;4981;50.966;4.842;2023-04-15T13:51:42;2.67;;;1.00;;
9884;SDS011;4981;50.966;4.842;2023-04-15T13:54:09;3.58;;;1.30;;
9884;SDS011;4981;50.966;4.842;2023-04-15T13:56:37;3.72;;;1.70;;
9884;SDS011;4981;50.966;4.842;2023-04-15T13:59:04;2.40;;;1.33;;
9884;SDS011;4981;50.966;4.842;2023-04-15T14:01:33;4.05;;;1.33;;
9884;SDS011;4981;50.966;4.842;2023-04-15T14:04:00;2.33;;;1.30;;
9884;SDS011;4981;50.966;4.842;2023-04-15T14:06:27;1.13;;;0.80;;
9884;SDS011;4981;50.966;4.842;2023-04-15T14:08:57;5.07;;;1.80;;
9884;SDS011;4981;50.966;4.842;2023-04-15T14:11:25;4.93;;;1.83;;
9884;SDS011;4981;50.966;4.842;2023-04-15T14:13:52;2.25;;;0.60;;
9884;SDS011;4981;50.966;4.842;2023-04-15T14:16:20;3.05;;;1.63;;
9884;SDS011;4981;50.966;4.842;2023-04-15T14:18:47;3.53;;;1.97;;
9884;SDS011;4981;50.966;4.842;2023-04-15T14:21:14;3.35;;;1.90;;
9884;SDS011;4981;50.966;4.842;2023-04-15T14:23:42;2.13;;;1.52;;
9884;SDS011;4981;50.966;4.842;2023-04-15T14:26:36;2.25;;;1.20;;
9884;SDS011;4981;50.966;4.842;2023-04-15T14:29:03;2.35;;;1.38;;
9884;SDS011;4981;50.966;4.842;2023-04-15T14:31:30;2.60;;;1.63;;
9884;SDS011;4981;50.966;4.842;2023-04-15T14:33:58;2.25;;;1.30;;
9884;SDS011;4981;50.966;4.842;2023-04-15T14:36:25;3.17;;;1.70;;
9884;SDS011;4981;50.966;4.842;2023-04-15T14:38:52;2.38;;;1.80;;
9884;SDS011;4981;50.966;4.842;2023-04-15T14:41:19;3.33;;;1.65;;
9884;SDS011;4981;50.966;4.842;2023-04-15T14:43:49;2.53;;;1.53;;
9884;SDS011;4981;50.966;4.842;2023-04-15T14:46:16;2.03;;;1.50;;
9884;SDS011;4981;50.966;4.842;2023-04-15T14:48:43;4.00;;;1.70;;
9884;SDS011;4981;50.966;4.842;2023-04-15T14:52:06;3.87;;;1.50;;
9884;SDS011;4981;50.966;4.842;2023-04-15T14:54:33;2.43;;;1.50;;
9884;SDS011;4981;50.966;4.842;2023-04-15T14:57:00;2.05;;;1.10;;
9884;SDS011;4981;50.966;4.842;2023-04-15T14:59:28;1.33;;;0.90;;
9884;SDS011;4981;50.966;4.842;2023-04-15T15:01:55;3.00;;;1.20;;
9884;SDS011;4981;50.966;4.842;2023-04-15T15:04:22;4.05;;;1.00;;
9884;SDS011;4981;50.966;4.842;2023-04-15T15:06:49;1.52;;;0.82;;
9884;SDS011;4981;50.966;4.842;2023-04-15T15:09:18;4.30;;;1.17;;
9884;SDS011;4981;50.966;4.842;2023-04-15T15:11:47;1.20;;;0.85;;
9884;SDS011;4981;50.966;4.842;2023-04-15T15:14:15;2.22;;;1.08;;
9884;SDS011;4981;50.966;4.842;2023-04-15T15:16:42;2.13;;;0.88;;
9884;SDS011;4981;50.966;4.842;2023-04-15T15:19:09;1.83;;;0.80;;
9884;SDS011;4981;50.966;4.842;2023-04-15T15:21:36;1.27;;;0.70;;
9884;SDS011;4981;50.966;4.842;2023-04-15T15:24:04;1.93;;;0.90;;
9884;SDS011;4981;50.966;4.842;2023-04-15T15:26:33;2.05;;;1.10;;
9884;SDS011;4981;50.966;4.842;2023-04-15T15:29:00;2.45;;;1.08;;
9884;SDS011;4981;50.966;4.842;2023-04-15T15:31:27;1.90;;;0.80;;
9884;SDS011;4981;50.966;4.842;2023-04-15T15:33:55;2.27;;;0.93;;
9884;SDS011;4981;50.966;4.842;2023-04-15T15:36:22;1.15;;;0.90;;
9884;SDS011;4981;50.966;4.842;2023-04-15T15:38:51;0.90;;;0.70;;
9884;SDS011;4981;50.966;4.842;2023-04-15T15:41:18;1.97;;;0.80;;
9884;SDS011;4981;50.966;4.842;2023-04-15T15:43:47;1.75;;;1.20;;
9884;SDS011;4981;50.966;4.842;2023-04-15T15:46:14;4.20;;;1.30;;
9884;SDS011;4981;50.966;4.842;2023-04-15T15:48:41;2.17;;;0.88;;
9884;SDS011;4981;50.966;4.842;2023-04-15T15:51:09;1.67;;;1.10;;
9884;SDS011;4981;50.966;4.842;2023-04-15T15:53:36;0.80;;;0.80;;
9884;SDS011;4981;50.966;4.842;2023-04-15T15:56:04;2.45;;;1.10;;
9884;SDS011;4981;50.966;4.842;2023-04-15T15:58:31;1.48;;;0.80;;
9884;SDS011;4981;50.966;4.842;2023-04-15T16:00:59;1.48;;;1.05;;
9884;SDS011;4981;50.966;4.842;2023-04-15T16:03:27;1.10;;;1.00;;
9884;SDS011;4981;50.966;4.842;2023-04-15T16:05:54;3.55;;;1.33;;
9884;SDS011;4981;50.966;4.842;2023-04-15T16:08:21;1.42;;;0.70;;
9884;SDS011;4981;50.966;4.842;2023-04-15T16:10:48;1.88;;;1.00;;
9884;SDS011;4981;50.966;4.842;2023-04-15T16:13:16;3.17;;;1.27;;
9884;SDS011;4981;50.966;4.842;2023-04-15T16:15:43;3.85;;;1.00;;
9884;SDS011;4981;50.966;4.842;2023-04-15T16:18:12;1.63;;;0.93;;
9884;SDS011;4981;50.966;4.842;2023-04-15T16:20:39;2.15;;;0.90;;
9884;SDS011;4981;50.966;4.842;2023-04-15T16:23:07;2.22;;;0.85;;
9884;SDS011;4981;50.966;4.842;2023-04-15T16:25:37;1.30;;;0.65;;
9884;SDS011;4981;50.966;4.842;2023-04-15T16:28:05;1.87;;;0.50;;
9884;SDS011;4981;50.966;4.842;2023-04-15T16:30:33;5.38;;;1.10;;
9884;SDS011;4981;50.966;4.842;2023-04-15T16:33:01;1.77;;;0.60;;
9884;SDS011;4981;50.966;4.842;2023-04-15T16:35:30;1.53;;;1.00;;
9884;SDS011;4981;50.966;4.842;2023-04-15T16:37:59;1.83;;;0.75;;
9884;SDS011;4981;50.966;4.842;2023-04-15T16:40:27;3.55;;;1.13;;
9884;SDS011;4981;50.966;4.842;2023-04-15T16:42:54;1.85;;;0.80;;
9884;SDS011;4981;50.966;4.842;2023-04-15T16:45:21;2.10;;;0.80;;
9884;SDS011;4981;50.966;4.842;2023-04-15T16:47:49;1.20;;;0.95;;
9884;SDS011;4981;50.966;4.842;2023-04-15T16:50:16;2.33;;;1.45;;
9884;SDS011;4981;50.966;4.842;2023-04-15T16:52:45;4.20;;;1.45;;
9884;SDS011;4981;50.966;4.842;2023-04-15T16:55:13;3.30;;;1.50;;
9884;SDS011;4981;50.966;4.842;2023-04-15T16:57:40;3.40;;;1.45;;
9884;SDS011;4981;50.966;4.842;2023-04-15T17:00:08;3.13;;;1.17;;
9884;SDS011;4981;50.966;4.842;2023-04-15T17:02:35;1.58;;;1.10;;
9884;SDS011;4981;50.966;4.842;2023-04-15T17:05:02;3.78;;;1.10;;
9884;SDS011;4981;50.966;4.842;2023-04-15T17:07:30;2.80;;;1.50;;
9884;SDS011;4981;50.966;4.842;2023-04-15T17:09:59;2.97;;;1.30;;
9884;SDS011;4981;50.966;4.842;2023-04-15T17:12:26;3.58;;;1.08;;
9884;SDS011;4981;50.966;4.842;2023-04-15T17:14:53;3.78;;;2.13;;
9884;SDS011;4981;50.966;4.842;2023-04-15T17:17:20;5.27;;;1.87;;
9884;SDS011;4981;50.966;4.842;2023-04-15T17:19:48;5.25;;;2.00;;
9884;SDS011;4981;50.966;4.842;2023-04-15T17:22:15;6.20;;;1.60;;
9884;SDS011;4981;50.966;4.842;2023-04-15T17:24:43;2.83;;;1.20;;
9884;SDS011;4981;50.966;4.842;2023-04-15T17:27:12;2.57;;;1.30;;
9884;SDS011;4981;50.966;4.842;2023-04-15T17:29:39;2.00;;;1.00;;
9884;SDS011;4981;50.966;4.842;2023-04-15T17:32:08;2.17;;;0.90;;
9884;SDS011;4981;50.966;4.842;2023-04-15T17:34:35;4.17;;;1.80;;
9884;SDS011;4981;50.966;4.842;2023-04-15T17:37:02;4.30;;;1.43;;
9884;SDS011;4981;50.966;4.842;2023-04-15T17:39:29;3.07;;;1.43;;
9884;SDS011;4981;50.966;4.842;2023-04-15T17:41:57;2.20;;;1.00;;
9884;SDS011;4981;50.966;4.842;2023-04-15T17:44:26;3.03;;;0.90;;
9884;SDS011;4981;50.966;4.842;2023-04-15T17:46:53;2.60;;;0.93;;
9884;SDS011;4981;50.966;4.842;2023-04-15T17:49:20;7.20;;;1.10;;
9884;SDS011;4981;50.966;4.842;2023-04-15T17:51:47;3.13;;;1.20;;
9884;SDS011;4981;50.966;4.842;2023-04-15T17:54:15;2.83;;;1.17;;
9884;SDS011;4981;50.966;4.842;2023-04-15T17:56:42;3.80;;;1.17;;
9884;SDS011;4981;50.966;4.842;2023-04-15T17:59:09;4.73;;;1.10;;
9884;SDS011;4981;50.966;4.842;2023-04-15T18:01:39;2.97;;;1.10;;
9884;SDS011;4981;50.966;4.842;2023-04-15T18:04:07;1.60;;;1.10;;
9884;SDS011;4981;50.966;4.842;2023-04-15T18:06:34;3.17;;;1.47;;
9884;SDS011;4981;50.966;4.842;2023-04-15T18:09:02;5.23;;;1.40;;
9884;SDS011;4981;50.966;4.842;2023-04-15T18:11:30;3.63;;;1.43;;
9884;SDS011;4981;50.966;4.842;2023-04-15T18:13:58;2.00;;;0.90;;
9884;SDS011;4981;50.966;4.842;2023-04-15T18:16:25;3.83;;;1.20;;
9884;SDS011;4981;50.966;4.842;2023-04-15T18:18:57;1.40;;;0.80;;
9884;SDS011;4981;50.966;4.842;2023-04-15T18:21:24;2.43;;;1.30;;
9884;SDS011;4981;50.966;4.842;2023-04-15T18:23:55;4.77;;;1.73;;
9884;SDS011;4981;50.966;4.842;2023-04-15T18:26:22;6.20;;;1.73;;
9884;SDS011;4981;50.966;4.842;2023-04-15T18:28:49;5.90;;;2.50;;
9884;SDS011;4981;50.966;4.842;2023-04-15T18:31:17;6.57;;;2.63;;
9884;SDS011;4981;50.966;4.842;2023-04-15T18:33:44;5.27;;;2.03;;
9884;SDS011;4981;50.966;4.842;2023-04-15T18:36:13;3.37;;;1.70;;
9884;SDS011;4981;50.966;4.842;2023-04-15T18:38:40;4.53;;;1.67;;
9884;SDS011;4981;50.966;4.842;2023-04-15T18:41:07;3.30;;;1.60;;
9884;SDS011;4981;50.966;4.842;2023-04-15T18:43:34;2.23;;;1.43;;
9884;SDS011;4981;50.966;4.842;2023-04-15T18:46:04;3.50;;;1.37;;
9884;SDS011;4981;50.966;4.842;2023-04-15T18:48:34;5.60;;;1.77;;
9884;SDS011;4981;50.966;4.842;2023-04-15T18:51:01;3.67;;;1.63;;
9884;SDS011;4981;50.966;4.842;2023-04-15T18:53:30;2.90;;;1.40;;
9884;SDS011;4981;50.966;4.842;2023-04-15T18:55:57;2.60;;;1.47;;
9884;SDS011;4981;50.966;4.842;2023-04-15T18:58:25;3.00;;;1.37;;
9884;SDS011;4981;50.966;4.842;2023-04-15T19:00:53;4.37;;;1.83;;
9884;SDS011;4981;50.966;4.842;2023-04-15T19:03:20;3.97;;;1.93;;
9884;SDS011;4981;50.966;4.842;2023-04-15T19:05:47;5.07;;;1.80;;
9884;SDS011;4981;50.966;4.842;2023-04-15T19:08:14;2.73;;;1.30;;
9884;SDS011;4981;50.966;4.842;2023-04-15T19:10:43;4.83;;;1.60;;
9884;SDS011;4981;50.966;4.842;2023-04-15T19:13:10;3.50;;;1.50;;
9884;SDS011;4981;50.966;4.842;2023-04-15T19:15:37;5.23;;;1.67;;
9884;SDS011;4981;50.966;4.842;2023-04-15T19:18:05;5.40;;;1.87;;
9884;SDS011;4981;50.966;4.842;2023-04-15T19:20:34;4.57;;;1.90;;
9884;SDS011;4981;50.966;4.842;2023-04-15T19:23:05;8.80;;;1.60;;
9884;SDS011;4981;50.966;4.842;2023-04-15T19:25:32;3.40;;;1.57;;
9884;SDS011;4981;50.966;4.842;2023-04-15T19:28:01;6.60;;;2.00;;
9884;SDS011;4981;50.966;4.842;2023-04-15T19:30:28;4.90;;;1.70;;
9884;SDS011;4981;50.966;4.842;2023-04-15T19:32:57;4.80;;;1.03;;
9884;SDS011;4981;50.966;4.842;2023-04-15T19:35:27;4.07;;;1.50;;
9884;SDS011;4981;50.966;4.842;2023-04-15T19:37:54;2.60;;;1.47;;
9884;SDS011;4981;50.966;4.842;2023-04-15T19:40:21;2.97;;;1.40;;
9884;SDS011;4981;50.966;4.842;2023-04-15T19:42:49;8.40;;;1.90;;
9884;SDS011;4981;50.966;4.842;2023-04-15T19:45:18;5.90;;;1.93;;
9884;SDS011;4981;50.966;4.842;2023-04-15T19:47:45;3.30;;;1.77;;
9884;SDS011;4981;50.966;4.842;2023-04-15T19:50:12;4.83;;;1.50;;
9884;SDS011;4981;50.966;4.842;2023-04-15T19:52:41;7.70;;;1.90;;
9884;SDS011;4981;50.966;4.842;2023-04-15T19:55:13;6.07;;;2.03;;
9884;SDS011;4981;50.966;4.842;2023-04-15T19:57:41;5.03;;;1.90;;
9884;SDS011;4981;50.966;4.842;2023-04-15T20:00:08;5.13;;;2.07;;
9884;SDS011;4981;50.966;4.842;2023-04-15T20:02:37;3.57;;;1.90;;
9884;SDS011;4981;50.966;4.842;2023-04-15T20:05:04;5.50;;;1.90;;
9884;SDS011;4981;50.966;4.842;2023-04-15T20:07:33;6.53;;;2.10;;
9884;SDS011;4981;50.966;4.842;2023-04-15T20:10:01;5.23;;;2.23;;
9884;SDS011;4981;50.966;4.842;2023-04-15T20:12:28;6.50;;;2.53;;
9884;SDS011;4981;50.966;4.842;2023-04-15T20:14:55;9.07;;;2.60;;
9884;SDS011;4981;50.966;4.842;2023-04-15T20:17:23;6.20;;;2.37;;
9884;SDS011;4981;50.966;4.842;2023-04-15T20:19:51;5.27;;;1.90;;
9884;SDS011;4981;50.966;4.842;2023-04-15T20:22:18;6.90;;;2.20;;
9884;SDS011;4981;50.966;4.842;2023-04-15T20:24:46;4.40;;;2.17;;
9884;SDS011;4981;50.966;4.842;2023-04-15T20:27:13;7.23;;;2.87;;
9884;SDS011;4981;50.966;4.842;2023-04-15T20:29:40;8.37;;;3.47;;
9884;SDS011;4981;50.966;4.842;2023-04-15T20:32:07;10.40;;;3.50;;
9884;SDS011;4981;50.966;4.842;2023-04-15T20:34:35;10.43;;;3.10;;
9884;SDS011;4981;50.966;4.842;2023-04-15T20:37:05;8.60;;;3.23;;
9884;SDS011;4981;50.966;4.842;2023-04-15T20:39:32;10.60;;;3.30;;
9884;SDS011;4981;50.966;4.842;2023-04-15T20:42:00;11.13;;;3.30;;
9884;SDS011;4981;50.966;4.842;2023-04-15T20:44:27;9.87;;;3.40;;
9884;SDS011;4981;50.966;4.842;2023-04-15T20:46:54;8.73;;;3.30;;
9884;SDS011;4981;50.966;4.842;2023-04-15T20:49:21;14.57;;;3.37;;
9884;SDS011;4981;50.966;4.842;2023-04-15T20:51:49;9.77;;;2.97;;
9884;SDS011;4981;50.966;4.842;2023-04-15T20:54:18;8.77;;;3.40;;
9884;SDS011;4981;50.966;4.842;2023-04-15T20:56:45;11.87;;;3.40;;
9884;SDS011;4981;50.966;4.842;2023-04-15T20:59:12;11.37;;;2.97;;
9884;SDS011;4981;50.966;4.842;2023-04-15T21:01:40;13.17;;;3.27;;
9884;SDS011;4981;50.966;4.842;2023-04-15T21:04:07;10.17;;;3.10;;
9884;SDS011;4981;50.966;4.842;2023-04-15T21:06:34;10.50;;;2.97;;
9884;SDS011;4981;50.966;4.842;2023-04-15T21:09:01;8.43;;;3.00;;
9884;SDS011;4981;50.966;4.842;2023-04-15T21:11:31;11.47;;;3.00;;
9884;SDS011;4981;50.966;4.842;2023-04-15T21:13:58;10.37;;;2.90;;
9884;SDS011;4981;50.966;4.842;2023-04-15T21:16:26;11.97;;;3.10;;
9884;SDS011;4981;50.966;4.842;2023-04-15T21:18:53;7.50;;;2.90;;
9884;SDS011;4981;50.966;4.842;2023-04-15T21:21:20;9.33;;;2.80;;
9884;SDS011;4981;50.966;4.842;2023-04-15T21:23:47;8.10;;;2.90;;
9884;SDS011;4981;50.966;4.842;2023-04-15T21:26:15;9.07;;;2.43;;
9884;SDS011;4981;50.966;4.842;2023-04-15T21:28:43;8.73;;;2.80;;
9884;SDS011;4981;50.966;4.842;2023-04-15T21:31:11;9.77;;;2.93;;
9884;SDS011;4981;50.966;4.842;2023-04-15T21:33:38;9.73;;;3.20;;
9884;SDS011;4981;50.966;4.842;2023-04-15T21:36:05;8.17;;;2.80;;
9884;SDS011;4981;50.966;4.842;2023-04-15T21:38:32;9.00;;;3.47;;
9884;SDS011;4981;50.966;4.842;2023-04-15T21:41:00;9.13;;;3.13;;
9884;SDS011;4981;50.966;4.842;2023-04-15T21:43:30;13.10;;;3.40;;
9884;SDS011;4981;50.966;4.842;2023-04-15T21:45:59;13.63;;;3.30;;
9884;SDS011;4981;50.966;4.842;2023-04-15T21:48:26;7.57;;;2.50;;
9884;SDS011;4981;50.966;4.842;2023-04-15T21:50:56;8.70;;;2.30;;
9884;SDS011;4981;50.966;4.842;2023-04-15T21:53:23;7.33;;;2.70;;
9884;SDS011;4981;50.966;4.842;2023-04-15T21:55:51;8.93;;;2.77;;
9884;SDS011;4981;50.966;4.842;2023-04-15T21:58:18;7.93;;;2.83;;
9884;SDS011;4981;50.966;4.842;2023-04-15T22:00:45;9.80;;;2.60;;
9884;SDS011;4981;50.966;4.842;2023-04-15T22:03:14;9.60;;;2.60;;
9884;SDS011;4981;50.966;4.842;2023-04-15T22:05:42;9.13;;;2.63;;
9884;SDS011;4981;50.966;4.842;2023-04-15T22:08:10;8.50;;;2.33;;
9884;SDS011;4981;50.966;4.842;2023-04-15T22:10:40;8.23;;;2.40;;
9884;SDS011;4981;50.966;4.842;2023-04-15T22:13:07;6.33;;;2.07;;
9884;SDS011;4981;50.966;4.842;2023-04-15T22:15:38;6.27;;;1.80;;
9884;SDS011;4981;50.966;4.842;2023-04-15T22:18:07;9.63;;;2.40;;
9884;SDS011;4981;50.966;4.842;2023-04-15T22:20:36;9.10;;;2.30;;
9884;SDS011;4981;50.966;4.842;2023-04-15T22:23:03;9.43;;;2.50;;
9884;SDS011;4981;50.966;4.842;2023-04-15T22:25:32;9.33;;;2.30;;
9884;SDS011;4981;50.966;4.842;2023-04-15T22:28:03;8.97;;;2.40;;
9884;SDS011;4981;50.966;4.842;2023-04-15T22:30:31;8.87;;;2.10;;
9884;SDS011;4981;50.966;4.842;2023-04-15T22:32:58;8.30;;;2.37;;
9884;SDS011;4981;50.966;4.842;2023-04-15T22:35:27;8.13;;;2.10;;
9884;SDS011;4981;50.966;4.842;2023-04-15T23:42:45;11.07;;;1.90;;
9884;SDS011;4981;50.966;4.842;2023-04-15T23:45:13;9.83;;;2.07;;
9884;SDS011;4981;50.966;4.842;2023-04-15T23:47:42;12.60;;;2.30;;
9884;SDS011;4981;50.966;4.842;2023-04-15T23:50:12;8.17;;;2.13;;
9884;SDS011;4981;50.966;4.842;2023-04-15T23:52:40;5.53;;;1.47;;
9884;SDS011;4981;50.966;4.842;2023-04-15T23:55:13;6.20;;;1.80;;
9884;SDS011;4981;50.966;4.842;2023-04-15T23:57:41;6.77;;;1.47;;
